sensor_id;sensor_type;location;lat;lon;timestamp;temperature;humidity
12223;DHT22;6174;49.058;8.524;2023-03-23T05:01:32;15.60;86.30
12223;DHT22;6174;49.058;8.524;2023-03-23T05:04:02;15.60;85.90
12223;DHT22;6174;49.058;8.524;2023-03-23T05:06:29;15.60;85.90
12223;DHT22;6174;49.058;8.524;2023-03-23T05:08:56;15.60;85.80
12223;DHT22;6174;49.058;8.524;2023-03-23T05:11:23;15.70;85.20
12223;DHT22;6174;49.058;8.524;2023-03-23T05:13:50;15.70;85.50
12223;DHT22;6174;49.058;8.524;2023-03-23T05:16:17;15.70;85.30
12223;DHT22;6174;49.058;8.524;2023-03-23T05:18:45;15.70;85.60
12223;DHT22;6174;49.058;8.524;2023-03-23T05:21:13;15.60;86.30
12223;DHT22;6174;49.058;8.524;2023-03-23T05:23:40;15.50;87.20
12223;DHT22;6174;49.058;8.524;2023-03-23T05:26:07;15.50;88.60
12223;DHT22;6174;49.058;8.524;2023-03-23T05:28:34;15.30;89.70
12223;DHT22;6174;49.058;8.524;2023-03-23T05:31:01;15.20;90.40
12223;DHT22;6174;49.058;8.524;2023-03-23T05:33:28;15.00;90.60
12223;DHT22;6174;49.058;8.524;2023-03-23T05:35:56;15.00;91.10
12223;DHT22;6174;49.058;8.524;2023-03-23T05:38:23;14.90;91.30
12223;DHT22;6174;49.058;8.524;2023-03-23T05:40:50;14.80;91.50
12223;DHT22;6174;49.058;8.524;2023-03-23T05:43:17;14.70;91.80
12223;DHT22;6174;49.058;8.524;2023-03-23T05:45:44;14.60;92.20
12223;DHT22;6174;49.058;8.524;2023-03-23T05:48:11;14.70;92.10
12223;DHT22;6174;49.058;8.524;2023-03-23T05:50:38;14.60;92.40
12223;DHT22;6174;49.058;8.524;2023-03-23T05:53:06;14.60;92.90
12223;DHT22;6174;49.058;8.524;2023-03-23T05:55:33;14.60;93.30
12223;DHT22;6174;49.058;8.524;2023-03-23T05:58:00;14.50;93.00
12223;DHT22;6174;49.058;8.524;2023-03-23T06:00:27;14.50;93.50
12223;DHT22;6174;49.058;8.524;2023-03-23T06:02:56;14.50;94.00
12223;DHT22;6174;49.058;8.524;2023-03-23T06:05:23;14.50;94.70
12223;DHT22;6174;49.058;8.524;2023-03-23T06:07:51;14.40;95.30
12223;DHT22;6174;49.058;8.524;2023-03-23T06:10:20;14.40;95.10
12223;DHT22;6174;49.058;8.524;2023-03-23T06:12:47;14.40;94.30
12223;DHT22;6174;49.058;8.524;2023-03-23T06:15:14;14.30;94.30
12223;DHT22;6174;49.058;8.524;2023-03-23T06:17:41;14.40;94.40
12223;DHT22;6174;49.058;8.524;2023-03-23T06:20:09;14.40;94.70
12223;DHT22;6174;49.058;8.524;2023-03-23T06:22:37;14.40;95.00
12223;DHT22;6174;49.058;8.524;2023-03-23T06:25:05;14.30;95.40
12223;DHT22;6174;49.058;8.524;2023-03-23T06:27:34;14.30;95.80
12223;DHT22;6174;49.058;8.524;2023-03-23T06:30:01;14.40;96.20
12223;DHT22;6174;49.058;8.524;2023-03-23T06:32:30;14.40;96.60
12223;DHT22;6174;49.058;8.524;2023-03-23T06:34:57;14.30;96.90
12223;DHT22;6174;49.058;8.524;2023-03-23T06:37:24;14.30;96.10
12223;DHT22;6174;49.058;8.524;2023-03-23T06:39:51;14.30;96.60
12223;DHT22;6174;49.058;8.524;2023-03-23T06:42:18;14.30;96.70
12223;DHT22;6174;49.058;8.524;2023-03-23T06:44:46;14.40;96.00
12223;DHT22;6174;49.058;8.524;2023-03-23T06:47:13;14.40;96.10
12223;DHT22;6174;49.058;8.524;2023-03-23T06:49:39;14.30;96.00
12223;DHT22;6174;49.058;8.524;2023-03-23T06:52:06;14.30;96.10
12223;DHT22;6174;49.058;8.524;2023-03-23T06:54:33;14.40;96.20
12223;DHT22;6174;49.058;8.524;2023-03-23T06:57:00;14.30;96.40
12223;DHT22;6174;49.058;8.524;2023-03-23T06:59:27;14.40;96.30
12223;DHT22;6174;49.058;8.524;2023-03-23T07:01:56;14.40;96.40
12223;DHT22;6174;49.058;8.524;2023-03-23T07:04:22;14.30;97.00
12223;DHT22;6174;49.058;8.524;2023-03-23T07:06:50;14.30;97.20
12223;DHT22;6174;49.058;8.524;2023-03-23T07:09:17;14.30;96.80
12223;DHT22;6174;49.058;8.524;2023-03-23T07:11:43;14.30;96.90
12223;DHT22;6174;49.058;8.524;2023-03-23T07:14:13;14.30;97.00
12223;DHT22;6174;49.058;8.524;2023-03-23T07:16:40;14.30;97.20
12223;DHT22;6174;49.058;8.524;2023-03-23T07:19:09;14.30;97.50
12223;DHT22;6174;49.058;8.524;2023-03-23T07:21:35;14.30;97.20
12223;DHT22;6174;49.058;8.524;2023-03-23T07:24:03;14.30;97.40
12223;DHT22;6174;49.058;8.524;2023-03-23T07:26:29;14.30;98.10
12223;DHT22;6174;49.058;8.524;2023-03-23T07:28:57;14.30;99.20
12223;DHT22;6174;49.058;8.524;2023-03-23T07:31:23;14.20;99.00
12223;DHT22;6174;49.058;8.524;2023-03-23T07:33:50;14.20;99.50
12223;DHT22;6174;49.058;8.524;2023-03-23T07:36:19;14.20;99.50
12223;DHT22;6174;49.058;8.524;2023-03-23T07:38:45;14.10;99.90
12223;DHT22;6174;49.058;8.524;2023-03-23T07:41:13;14.00;99.90
12223;DHT22;6174;49.058;8.524;2023-03-23T07:43:40;14.00;99.90
12223;DHT22;6174;49.058;8.524;2023-03-23T07:46:07;14.00;99.90
12223;DHT22;6174;49.058;8.524;2023-03-23T07:48:34;14.00;99.90
12223;DHT22;6174;49.058;8.524;2023-03-23T07:51:01;14.00;99.90
12223;DHT22;6174;49.058;8.524;2023-03-23T07:53:29;14.00;99.90
12223;DHT22;6174;49.058;8.524;2023-03-23T07:55:56;14.00;99.90
12223;DHT22;6174;49.058;8.524;2023-03-23T07:58:23;14.00;99.90
12223;DHT22;6174;49.058;8.524;2023-03-23T08:00:52;14.00;99.90
12223;DHT22;6174;49.058;8.524;2023-03-23T08:03:19;14.00;99.90
12223;DHT22;6174;49.058;8.524;2023-03-23T08:05:46;13.90;99.90
12223;DHT22;6174;49.058;8.524;2023-03-23T08:08:13;14.00;99.90
12223;DHT22;6174;49.058;8.524;2023-03-23T08:10:41;14.00;99.90
12223;DHT22;6174;49.058;8.524;2023-03-23T08:13:08;13.90;99.90
12223;DHT22;6174;49.058;8.524;2023-03-23T08:15:35;13.90;99.90
12223;DHT22;6174;49.058;8.524;2023-03-23T08:18:03;13.90;99.90
12223;DHT22;6174;49.058;8.524;2023-03-23T08:20:30;14.00;99.90
12223;DHT22;6174;49.058;8.524;2023-03-23T08:22:58;14.00;99.90
12223;DHT22;6174;49.058;8.524;2023-03-23T08:25:25;14.00;99.90
12223;DHT22;6174;49.058;8.524;2023-03-23T08:27:54;14.10;99.90
12223;DHT22;6174;49.058;8.524;2023-03-23T08:30:21;14.10;99.90
12223;DHT22;6174;49.058;8.524;2023-03-23T08:32:50;14.20;99.90
12223;DHT22;6174;49.058;8.524;2023-03-23T08:35:18;14.20;99.90
12223;DHT22;6174;49.058;8.524;2023-03-23T08:37:46;14.20;99.90
12223;DHT22;6174;49.058;8.524;2023-03-23T08:40:17;14.20;99.90
12223;DHT22;6174;49.058;8.524;2023-03-23T08:42:45;14.30;99.90
12223;DHT22;6174;49.058;8.524;2023-03-23T08:45:16;14.30;99.90
12223;DHT22;6174;49.058;8.524;2023-03-23T08:47:44;14.40;99.90
12223;DHT22;6174;49.058;8.524;2023-03-23T08:50:13;14.50;99.90
12223;DHT22;6174;49.058;8.524;2023-03-23T08:52:40;14.50;99.90
12223;DHT22;6174;49.058;8.524;2023-03-23T08:55:08;14.60;99.90
12223;DHT22;6174;49.058;8.524;2023-03-23T08:57:35;14.60;99.90
12223;DHT22;6174;49.058;8.524;2023-03-23T09:00:03;14.70;99.90
12223;DHT22;6174;49.058;8.524;2023-03-23T09:02:40;14.70;99.90
12223;DHT22;6174;49.058;8.524;2023-03-23T09:05:07;14.70;99.90
12223;DHT22;6174;49.058;8.524;2023-03-23T09:07:35;14.70;99.90
12223;DHT22;6174;49.058;8.524;2023-03-23T09:10:02;14.70;99.90
12223;DHT22;6174;49.058;8.524;2023-03-23T09:12:29;14.70;99.90
12223;DHT22;6174;49.058;8.524;2023-03-23T09:14:56;14.90;99.90
12223;DHT22;6174;49.058;8.524;2023-03-23T09:17:23;15.00;99.90
12223;DHT22;6174;49.058;8.524;2023-03-23T09:19:52;15.10;99.90
12223;DHT22;6174;49.058;8.524;2023-03-23T09:22:18;15.10;99.90
12223;DHT22;6174;49.058;8.524;2023-03-23T09:24:48;15.10;99.90
12223;DHT22;6174;49.058;8.524;2023-03-23T09:27:15;15.10;99.90
12223;DHT22;6174;49.058;8.524;2023-03-23T09:29:42;15.10;99.90
12223;DHT22;6174;49.058;8.524;2023-03-23T09:32:09;15.10;99.90
12223;DHT22;6174;49.058;8.524;2023-03-23T09:34:38;15.10;99.90
12223;DHT22;6174;49.058;8.524;2023-03-23T09:37:07;15.00;99.90
12223;DHT22;6174;49.058;8.524;2023-03-23T09:39:34;15.00;99.90
12223;DHT22;6174;49.058;8.524;2023-03-23T09:42:21;15.00;99.90
12223;DHT22;6174;49.058;8.524;2023-03-23T09:45:00;15.00;99.90
12223;DHT22;6174;49.058;8.524;2023-03-23T09:47:33;14.90;99.90
12223;DHT22;6174;49.058;8.524;2023-03-23T09:50:04;14.90;99.90
12223;DHT22;6174;49.058;8.524;2023-03-23T09:52:39;14.90;99.90
12223;DHT22;6174;49.058;8.524;2023-03-23T09:55:10;14.90;99.90
12223;DHT22;6174;49.058;8.524;2023-03-23T09:57:44;14.80;99.90
12223;DHT22;6174;49.058;8.524;2023-03-23T10:00:15;14.80;99.90
12223;DHT22;6174;49.058;8.524;2023-03-23T10:02:48;14.70;99.90
12223;DHT22;6174;49.058;8.524;2023-03-23T10:05:29;14.50;99.90
12223;DHT22;6174;49.058;8.524;2023-03-23T10:07:58;14.50;99.90
12223;DHT22;6174;49.058;8.524;2023-03-23T10:10:31;14.40;99.90
12223;DHT22;6174;49.058;8.524;2023-03-23T10:13:04;14.30;99.90
12223;DHT22;6174;49.058;8.524;2023-03-23T10:15:35;14.30;99.90
12223;DHT22;6174;49.058;8.524;2023-03-23T10:18:07;14.20;99.90
12223;DHT22;6174;49.058;8.524;2023-03-23T10:20:42;14.20;99.90
12223;DHT22;6174;49.058;8.524;2023-03-23T10:23:35;14.20;99.90
12223;DHT22;6174;49.058;8.524;2023-03-23T10:26:10;14.20;99.90
12223;DHT22;6174;49.058;8.524;2023-03-23T10:28:41;14.10;99.90
12223;DHT22;6174;49.058;8.524;2023-03-23T10:31:11;14.10;99.90
12223;DHT22;6174;49.058;8.524;2023-03-23T10:33:41;14.00;99.90
12223;DHT22;6174;49.058;8.524;2023-03-23T10:36:12;14.00;99.90
12223;DHT22;6174;49.058;8.524;2023-03-23T10:38:44;14.00;99.90
12223;DHT22;6174;49.058;8.524;2023-03-23T10:41:14;14.00;99.90
12223;DHT22;6174;49.058;8.524;2023-03-23T10:43:42;14.00;99.90
12223;DHT22;6174;49.058;8.524;2023-03-23T10:46:19;13.90;99.90
12223;DHT22;6174;49.058;8.524;2023-03-23T10:48:50;13.90;99.90
12223;DHT22;6174;49.058;8.524;2023-03-23T10:51:21;13.90;99.90
12223;DHT22;6174;49.058;8.524;2023-03-23T10:53:56;14.00;99.90
12223;DHT22;6174;49.058;8.524;2023-03-23T10:56:25;13.90;99.90
12223;DHT22;6174;49.058;8.524;2023-03-23T10:58:53;13.90;99.90
12223;DHT22;6174;49.058;8.524;2023-03-23T11:01:29;13.90;99.90
12223;DHT22;6174;49.058;8.524;2023-03-23T11:03:56;14.00;99.90
12223;DHT22;6174;49.058;8.524;2023-03-23T11:06:27;14.10;99.90
12223;DHT22;6174;49.058;8.524;2023-03-23T11:08:57;14.20;99.90
12223;DHT22;6174;49.058;8.524;2023-03-23T11:11:26;14.30;99.90
12223;DHT22;6174;49.058;8.524;2023-03-23T11:13:57;14.30;99.90
12223;DHT22;6174;49.058;8.524;2023-03-23T11:16:26;14.30;99.90
12223;DHT22;6174;49.058;8.524;2023-03-23T11:18:54;14.30;99.90
12223;DHT22;6174;49.058;8.524;2023-03-23T11:21:22;14.40;99.90
12223;DHT22;6174;49.058;8.524;2023-03-23T11:23:51;14.30;99.90
12223;DHT22;6174;49.058;8.524;2023-03-23T11:26:22;14.20;99.90
12223;DHT22;6174;49.058;8.524;2023-03-23T11:28:55;14.10;99.90
12223;DHT22;6174;49.058;8.524;2023-03-23T11:31:23;14.10;99.90
12223;DHT22;6174;49.058;8.524;2023-03-23T11:33:54;14.20;99.90
12223;DHT22;6174;49.058;8.524;2023-03-23T11:36:29;14.10;99.90
12223;DHT22;6174;49.058;8.524;2023-03-23T11:38:56;14.30;99.90
12223;DHT22;6174;49.058;8.524;2023-03-23T11:41:29;14.30;99.90
12223;DHT22;6174;49.058;8.524;2023-03-23T11:43:56;14.30;99.90
12223;DHT22;6174;49.058;8.524;2023-03-23T11:46:32;14.40;99.90
12223;DHT22;6174;49.058;8.524;2023-03-23T11:49:01;14.40;99.90
12223;DHT22;6174;49.058;8.524;2023-03-23T11:51:33;14.50;99.90
12223;DHT22;6174;49.058;8.524;2023-03-23T11:54:12;14.50;99.90
12223;DHT22;6174;49.058;8.524;2023-03-23T11:56:44;14.50;99.90
12223;DHT22;6174;49.058;8.524;2023-03-23T11:59:13;14.50;99.90
12223;DHT22;6174;49.058;8.524;2023-03-23T12:01:48;14.50;99.90
12223;DHT22;6174;49.058;8.524;2023-03-23T12:04:33;14.60;99.90
12223;DHT22;6174;49.058;8.524;2023-03-23T12:10:23;14.60;99.90
12223;DHT22;6174;49.058;8.524;2023-03-23T12:13:01;14.70;99.90
12223;DHT22;6174;49.058;8.524;2023-03-23T12:15:34;14.60;99.90
12223;DHT22;6174;49.058;8.524;2023-03-23T12:18:09;14.60;99.90
12223;DHT22;6174;49.058;8.524;2023-03-23T12:20:49;14.60;99.90
12223;DHT22;6174;49.058;8.524;2023-03-23T12:23:23;14.60;99.90
12223;DHT22;6174;49.058;8.524;2023-03-23T12:29:05;14.70;99.90
12223;DHT22;6174;49.058;8.524;2023-03-23T12:31:40;14.70;99.90
12223;DHT22;6174;49.058;8.524;2023-03-23T12:34:17;14.80;99.90
12223;DHT22;6174;49.058;8.524;2023-03-23T12:36:55;14.80;99.90
12223;DHT22;6174;49.058;8.524;2023-03-23T12:39:53;14.90;99.90
12223;DHT22;6174;49.058;8.524;2023-03-23T12:42:29;14.90;99.90
12223;DHT22;6174;49.058;8.524;2023-03-23T12:45:05;14.90;99.90
12223;DHT22;6174;49.058;8.524;2023-03-23T12:47:39;14.90;99.90
12223;DHT22;6174;49.058;8.524;2023-03-23T12:50:13;15.00;99.90
12223;DHT22;6174;49.058;8.524;2023-03-23T12:52:45;15.00;99.90
12223;DHT22;6174;49.058;8.524;2023-03-23T12:55:17;14.90;99.90
12223;DHT22;6174;49.058;8.524;2023-03-23T12:57:49;14.90;99.90
12223;DHT22;6174;49.058;8.524;2023-03-23T13:00:23;15.00;99.90
12223;DHT22;6174;49.058;8.524;2023-03-23T13:02:56;14.90;99.90
12223;DHT22;6174;49.058;8.524;2023-03-23T13:05:35;15.00;99.90
12223;DHT22;6174;49.058;8.524;2023-03-23T13:08:06;15.10;99.90
12223;DHT22;6174;49.058;8.524;2023-03-23T13:10:40;15.10;99.90
12223;DHT22;6174;49.058;8.524;2023-03-23T13:13:12;15.20;99.90
12223;DHT22;6174;49.058;8.524;2023-03-23T13:15:46;15.10;99.90
12223;DHT22;6174;49.058;8.524;2023-03-23T13:18:23;15.20;99.90
12223;DHT22;6174;49.058;8.524;2023-03-23T13:20:57;15.20;99.90
12223;DHT22;6174;49.058;8.524;2023-03-23T13:23:28;15.20;99.90
12223;DHT22;6174;49.058;8.524;2023-03-23T13:25:59;15.20;99.90
12223;DHT22;6174;49.058;8.524;2023-03-23T13:28:29;15.20;99.90
12223;DHT22;6174;49.058;8.524;2023-03-23T13:31:00;15.20;99.90
12223;DHT22;6174;49.058;8.524;2023-03-23T13:33:33;15.20;99.90
12223;DHT22;6174;49.058;8.524;2023-03-23T13:36:08;15.30;99.90
12223;DHT22;6174;49.058;8.524;2023-03-23T13:38:36;15.40;99.90
12223;DHT22;6174;49.058;8.524;2023-03-23T13:41:09;15.50;99.90
12223;DHT22;6174;49.058;8.524;2023-03-23T13:43:38;15.50;99.90
12223;DHT22;6174;49.058;8.524;2023-03-23T13:46:12;15.60;99.90
12223;DHT22;6174;49.058;8.524;2023-03-23T13:48:46;15.70;99.90
12223;DHT22;6174;49.058;8.524;2023-03-23T13:51:26;15.70;99.90
12223;DHT22;6174;49.058;8.524;2023-03-23T13:54:06;15.80;99.60
12223;DHT22;6174;49.058;8.524;2023-03-23T13:56:36;15.70;99.60
12223;DHT22;6174;49.058;8.524;2023-03-23T13:59:07;15.70;99.90
12223;DHT22;6174;49.058;8.524;2023-03-23T14:01:38;15.70;99.90
12223;DHT22;6174;49.058;8.524;2023-03-23T14:04:10;15.70;99.90
12223;DHT22;6174;49.058;8.524;2023-03-23T14:06:37;15.80;99.90
12223;DHT22;6174;49.058;8.524;2023-03-23T14:09:06;15.80;99.50
12223;DHT22;6174;49.058;8.524;2023-03-23T14:11:46;15.90;99.70
12223;DHT22;6174;49.058;8.524;2023-03-23T14:14:17;15.90;99.30
12223;DHT22;6174;49.058;8.524;2023-03-23T14:16:49;15.80;99.90
12223;DHT22;6174;49.058;8.524;2023-03-23T14:19:19;15.80;99.90
12223;DHT22;6174;49.058;8.524;2023-03-23T14:21:53;15.70;99.90
12223;DHT22;6174;49.058;8.524;2023-03-23T14:24:22;15.80;99.90
12223;DHT22;6174;49.058;8.524;2023-03-23T14:26:50;15.80;99.90
12223;DHT22;6174;49.058;8.524;2023-03-23T14:29:19;15.70;99.90
12223;DHT22;6174;49.058;8.524;2023-03-23T14:31:52;15.70;99.90
12223;DHT22;6174;49.058;8.524;2023-03-23T14:34:22;15.70;99.90
12223;DHT22;6174;49.058;8.524;2023-03-23T14:36:50;15.60;99.90
12223;DHT22;6174;49.058;8.524;2023-03-23T14:39:23;15.60;99.90
12223;DHT22;6174;49.058;8.524;2023-03-23T14:41:51;15.60;99.90
12223;DHT22;6174;49.058;8.524;2023-03-23T14:44:27;15.60;99.90
12223;DHT22;6174;49.058;8.524;2023-03-23T14:46:58;15.60;99.90
12223;DHT22;6174;49.058;8.524;2023-03-23T14:49:30;15.60;99.90
12223;DHT22;6174;49.058;8.524;2023-03-23T14:52:03;15.60;99.90
12223;DHT22;6174;49.058;8.524;2023-03-23T14:54:34;15.60;99.90
12223;DHT22;6174;49.058;8.524;2023-03-23T14:57:10;15.60;99.90
12223;DHT22;6174;49.058;8.524;2023-03-23T14:59:40;15.50;99.90
12223;DHT22;6174;49.058;8.524;2023-03-23T15:02:11;15.60;99.90
12223;DHT22;6174;49.058;8.524;2023-03-23T15:04:39;15.60;99.90
12223;DHT22;6174;49.058;8.524;2023-03-23T15:07:06;15.60;99.90
12223;DHT22;6174;49.058;8.524;2023-03-23T15:09:33;15.60;99.90
12223;DHT22;6174;49.058;8.524;2023-03-23T15:12:04;15.60;99.90
12223;DHT22;6174;49.058;8.524;2023-03-23T15:14:32;15.60;99.90
12223;DHT22;6174;49.058;8.524;2023-03-23T15:17:01;15.60;99.90
12223;DHT22;6174;49.058;8.524;2023-03-23T15:19:33;15.60;99.90
12223;DHT22;6174;49.058;8.524;2023-03-23T15:22:05;15.60;99.90
12223;DHT22;6174;49.058;8.524;2023-03-23T15:24:34;15.60;99.90
12223;DHT22;6174;49.058;8.524;2023-03-23T15:27:11;15.50;99.90
12223;DHT22;6174;49.058;8.524;2023-03-23T15:29:49;15.50;99.90
12223;DHT22;6174;49.058;8.524;2023-03-23T15:32:25;15.50;99.90
12223;DHT22;6174;49.058;8.524;2023-03-23T15:34:54;15.40;99.90
12223;DHT22;6174;49.058;8.524;2023-03-23T15:37:25;15.40;99.90
12223;DHT22;6174;49.058;8.524;2023-03-23T15:39:52;15.40;99.90
12223;DHT22;6174;49.058;8.524;2023-03-23T15:42:25;15.30;99.90
12223;DHT22;6174;49.058;8.524;2023-03-23T15:44:56;15.30;99.90
12223;DHT22;6174;49.058;8.524;2023-03-23T15:47:34;15.30;99.90
12223;DHT22;6174;49.058;8.524;2023-03-23T15:50:08;15.30;99.90
12223;DHT22;6174;49.058;8.524;2023-03-23T15:52:36;15.20;99.90
12223;DHT22;6174;49.058;8.524;2023-03-23T15:55:03;15.20;99.90
12223;DHT22;6174;49.058;8.524;2023-03-23T15:57:29;15.20;99.90
12223;DHT22;6174;49.058;8.524;2023-03-23T15:59:56;15.20;99.90
12223;DHT22;6174;49.058;8.524;2023-03-23T16:02:23;15.10;99.90
12223;DHT22;6174;49.058;8.524;2023-03-23T16:04:51;15.10;99.90
12223;DHT22;6174;49.058;8.524;2023-03-23T16:07:22;15.10;99.90
12223;DHT22;6174;49.058;8.524;2023-03-23T16:09:48;15.10;99.90
12223;DHT22;6174;49.058;8.524;2023-03-23T16:12:15;15.00;99.90
12223;DHT22;6174;49.058;8.524;2023-03-23T16:14:42;15.10;99.90
12223;DHT22;6174;49.058;8.524;2023-03-23T16:17:11;15.00;99.90
12223;DHT22;6174;49.058;8.524;2023-03-23T16:19:40;15.00;99.90
12223;DHT22;6174;49.058;8.524;2023-03-23T16:22:07;15.00;99.90
12223;DHT22;6174;49.058;8.524;2023-03-23T16:24:36;15.00;99.90
12223;DHT22;6174;49.058;8.524;2023-03-23T16:27:03;15.00;99.90
12223;DHT22;6174;49.058;8.524;2023-03-23T16:29:30;15.00;99.90
12223;DHT22;6174;49.058;8.524;2023-03-23T16:31:57;15.10;99.90
12223;DHT22;6174;49.058;8.524;2023-03-23T16:34:24;15.10;99.90
12223;DHT22;6174;49.058;8.524;2023-03-23T16:36:53;15.10;99.90
12223;DHT22;6174;49.058;8.524;2023-03-23T16:39:20;15.10;99.90
12223;DHT22;6174;49.058;8.524;2023-03-23T16:41:49;15.10;99.90
12223;DHT22;6174;49.058;8.524;2023-03-23T16:44:15;15.20;99.90
12223;DHT22;6174;49.058;8.524;2023-03-23T16:46:42;15.10;99.90
12223;DHT22;6174;49.058;8.524;2023-03-23T16:49:09;15.10;99.90
12223;DHT22;6174;49.058;8.524;2023-03-23T16:51:36;15.10;99.90
12223;DHT22;6174;49.058;8.524;2023-03-23T16:54:03;15.10;99.90
12223;DHT22;6174;49.058;8.524;2023-03-23T16:56:29;15.10;99.90
12223;DHT22;6174;49.058;8.524;2023-03-23T16:58:57;15.10;99.90
12223;DHT22;6174;49.058;8.524;2023-03-23T17:01:24;15.10;99.90
12223;DHT22;6174;49.058;8.524;2023-03-23T17:03:51;15.10;99.90
12223;DHT22;6174;49.058;8.524;2023-03-23T17:06:18;15.10;99.90
12223;DHT22;6174;49.058;8.524;2023-03-23T17:08:45;15.10;99.90
12223;DHT22;6174;49.058;8.524;2023-03-23T17:11:12;15.10;99.90
12223;DHT22;6174;49.058;8.524;2023-03-23T17:13:38;15.10;99.90
12223;DHT22;6174;49.058;8.524;2023-03-23T17:16:08;15.00;99.90
12223;DHT22;6174;49.058;8.524;2023-03-23T17:18:35;15.00;99.90
12223;DHT22;6174;49.058;8.524;2023-03-23T17:21:02;15.00;99.90
12223;DHT22;6174;49.058;8.524;2023-03-23T17:23:28;14.90;99.90
12223;DHT22;6174;49.058;8.524;2023-03-23T17:25:55;14.90;99.90
12223;DHT22;6174;49.058;8.524;2023-03-23T17:28:23;14.90;99.90
12223;DHT22;6174;49.058;8.524;2023-03-23T17:30:51;14.80;99.90
12223;DHT22;6174;49.058;8.524;2023-03-23T17:33:19;14.80;99.90
12223;DHT22;6174;49.058;8.524;2023-03-23T17:35:46;14.80;99.90
12223;DHT22;6174;49.058;8.524;2023-03-23T17:38:16;14.80;99.90
12223;DHT22;6174;49.058;8.524;2023-03-23T17:40:42;14.80;99.90
12223;DHT22;6174;49.058;8.524;2023-03-23T17:43:09;14.80;99.90
12223;DHT22;6174;49.058;8.524;2023-03-23T17:45:36;14.80;99.90
12223;DHT22;6174;49.058;8.524;2023-03-23T17:48:03;14.80;99.90
12223;DHT22;6174;49.058;8.524;2023-03-23T17:50:33;14.80;99.90
12223;DHT22;6174;49.058;8.524;2023-03-23T17:53:00;14.80;99.90
12223;DHT22;6174;49.058;8.524;2023-03-23T17:55:26;14.80;99.90
12223;DHT22;6174;49.058;8.524;2023-03-23T17:57:53;14.80;99.90
12223;DHT22;6174;49.058;8.524;2023-03-23T18:00:20;14.90;99.90
12223;DHT22;6174;49.058;8.524;2023-03-23T18:02:47;14.90;99.90
12223;DHT22;6174;49.058;8.524;2023-03-23T18:05:14;14.90;99.90
12223;DHT22;6174;49.058;8.524;2023-03-23T18:07:42;14.90;99.90
12223;DHT22;6174;49.058;8.524;2023-03-23T18:10:09;14.90;99.90
12223;DHT22;6174;49.058;8.524;2023-03-23T18:12:37;14.90;99.90
12223;DHT22;6174;49.058;8.524;2023-03-23T18:15:05;14.90;99.90
12223;DHT22;6174;49.058;8.524;2023-03-23T18:17:32;14.90;99.90
12223;DHT22;6174;49.058;8.524;2023-03-23T18:19:59;14.80;99.90
12223;DHT22;6174;49.058;8.524;2023-03-23T18:22:26;14.80;99.90
12223;DHT22;6174;49.058;8.524;2023-03-23T18:24:54;14.80;99.90
12223;DHT22;6174;49.058;8.524;2023-03-23T18:27:22;14.80;99.90
12223;DHT22;6174;49.058;8.524;2023-03-23T18:29:49;14.70;99.90
12223;DHT22;6174;49.058;8.524;2023-03-23T18:32:16;14.80;99.90
12223;DHT22;6174;49.058;8.524;2023-03-23T18:34:44;14.80;99.90
12223;DHT22;6174;49.058;8.524;2023-03-23T18:37:12;14.80;99.90
12223;DHT22;6174;49.058;8.524;2023-03-23T18:39:39;14.70;99.90
12223;DHT22;6174;49.058;8.524;2023-03-23T18:42:07;14.80;99.90
12223;DHT22;6174;49.058;8.524;2023-03-23T18:44:34;14.70;99.90
12223;DHT22;6174;49.058;8.524;2023-03-23T18:47:00;14.70;99.90
12223;DHT22;6174;49.058;8.524;2023-03-23T18:49:27;14.70;99.90
12223;DHT22;6174;49.058;8.524;2023-03-23T18:51:55;14.70;99.90
12223;DHT22;6174;49.058;8.524;2023-03-23T18:54:22;14.70;99.90
12223;DHT22;6174;49.058;8.524;2023-03-23T18:56:49;14.70;99.90
12223;DHT22;6174;49.058;8.524;2023-03-23T18:59:17;14.70;99.90
12223;DHT22;6174;49.058;8.524;2023-03-23T19:01:44;14.70;99.90
12223;DHT22;6174;49.058;8.524;2023-03-23T19:04:11;14.70;99.90
12223;DHT22;6174;49.058;8.524;2023-03-23T19:06:38;14.70;99.90
12223;DHT22;6174;49.058;8.524;2023-03-23T19:09:05;14.70;99.90
12223;DHT22;6174;49.058;8.524;2023-03-23T19:11:32;14.70;99.90
12223;DHT22;6174;49.058;8.524;2023-03-23T19:13:59;14.80;99.90
12223;DHT22;6174;49.058;8.524;2023-03-23T19:16:27;14.80;99.90
12223;DHT22;6174;49.058;8.524;2023-03-23T19:18:55;14.80;99.90
12223;DHT22;6174;49.058;8.524;2023-03-23T19:21:22;14.90;99.90
12223;DHT22;6174;49.058;8.524;2023-03-23T19:23:48;14.90;99.90
12223;DHT22;6174;49.058;8.524;2023-03-23T19:26:21;14.90;99.90
12223;DHT22;6174;49.058;8.524;2023-03-23T19:28:48;14.90;99.90
12223;DHT22;6174;49.058;8.524;2023-03-23T19:31:14;14.80;99.90
12223;DHT22;6174;49.058;8.524;2023-03-23T19:33:45;14.90;99.90
12223;DHT22;6174;49.058;8.524;2023-03-23T19:36:11;14.90;99.90
12223;DHT22;6174;49.058;8.524;2023-03-23T19:38:38;14.90;99.90
12223;DHT22;6174;49.058;8.524;2023-03-23T19:41:05;15.00;99.90
12223;DHT22;6174;49.058;8.524;2023-03-23T19:43:32;14.90;99.90
12223;DHT22;6174;49.058;8.524;2023-03-23T19:45:58;14.90;99.90
12223;DHT22;6174;49.058;8.524;2023-03-23T19:48:26;14.90;99.90
12223;DHT22;6174;49.058;8.524;2023-03-23T19:50:55;14.90;99.90
12223;DHT22;6174;49.058;8.524;2023-03-23T19:53:22;14.80;99.90
12223;DHT22;6174;49.058;8.524;2023-03-23T19:55:49;14.70;99.90
12223;DHT22;6174;49.058;8.524;2023-03-23T19:58:15;14.80;99.90
12223;DHT22;6174;49.058;8.524;2023-03-23T20:00:42;14.70;99.90
12223;DHT22;6174;49.058;8.524;2023-03-23T20:03:09;14.70;99.90
12223;DHT22;6174;49.058;8.524;2023-03-23T20:05:36;14.70;99.90
12223;DHT22;6174;49.058;8.524;2023-03-23T20:08:04;14.70;99.90
12223;DHT22;6174;49.058;8.524;2023-03-23T20:10:31;14.70;99.90
12223;DHT22;6174;49.058;8.524;2023-03-23T20:12:59;14.70;99.90
12223;DHT22;6174;49.058;8.524;2023-03-23T20:15:26;14.70;99.90
12223;DHT22;6174;49.058;8.524;2023-03-23T20:17:53;14.70;99.90
12223;DHT22;6174;49.058;8.524;2023-03-23T20:20:20;14.80;99.80
12223;DHT22;6174;49.058;8.524;2023-03-23T20:22:47;14.80;99.60
12223;DHT22;6174;49.058;8.524;2023-03-23T20:25:15;14.90;99.90
12223;DHT22;6174;49.058;8.524;2023-03-23T20:27:43;14.80;99.50
12223;DHT22;6174;49.058;8.524;2023-03-23T20:30:11;14.90;99.60
12223;DHT22;6174;49.058;8.524;2023-03-23T20:32:39;14.90;99.70
12223;DHT22;6174;49.058;8.524;2023-03-23T20:35:09;14.90;99.90
12223;DHT22;6174;49.058;8.524;2023-03-23T20:37:38;14.90;99.00
12223;DHT22;6174;49.058;8.524;2023-03-23T20:40:07;14.90;99.40
12223;DHT22;6174;49.058;8.524;2023-03-23T20:42:36;15.00;99.90
12223;DHT22;6174;49.058;8.524;2023-03-23T20:45:04;15.00;99.90
12223;DHT22;6174;49.058;8.524;2023-03-23T20:47:31;15.00;99.90
12223;DHT22;6174;49.058;8.524;2023-03-23T20:49:58;15.00;99.90
12223;DHT22;6174;49.058;8.524;2023-03-23T20:52:26;15.00;99.90
12223;DHT22;6174;49.058;8.524;2023-03-23T20:54:53;14.90;99.90
12223;DHT22;6174;49.058;8.524;2023-03-23T20:57:21;14.90;99.90
12223;DHT22;6174;49.058;8.524;2023-03-23T20:59:50;14.90;99.90
12223;DHT22;6174;49.058;8.524;2023-03-23T21:02:18;14.90;99.90
12223;DHT22;6174;49.058;8.524;2023-03-23T21:04:45;14.80;99.90